• Join FlightAware (Why Join?)
  • Login
  • US Flag 
01:25AM EST


 

Airport Tracker/Info


-or-


 

Live Flight TrackerFlight Track Log ✈ N1222B ✈ 14-Jun-2013 ✈ KSQL - KGEG

Flight Track Log - Related Links

Times and Time Zones

All times are in EDT time to prevent confusion due to time zone crossing. See the N1222B flight status page for this flight to view local times or setup timezone preferences in your user account.

Time Position Orientation Groundspeed Altitude Reporting Facility
EDT Latitude Longitude Course Direction KTS MPH feet Rate Location/Type
01:16PM 37.5063 -122.2430 136° Southeast 119 137 100  Level FlightAware ADS-B
01:16PM 37.5036 -122.2390 130° Southeast 127 146 200 1,200 Climbing FlightAware ADS-B
01:16PM 37.5027 -122.2370 120° Southeast 130 150 300 840 Climbing FlightAware ADS-B
01:17PM 37.5020 -122.2340 106° East 134 154 300 660 Level FlightAware ADS-B
01:17PM 37.5016 -122.2300 97° East 138 159 400 1,200 Climbing FlightAware ADS-B
01:17PM 37.5014 -122.2260 94° East 144 166 500 1,200 Climbing FlightAware ADS-B
01:17PM 37.5016 -122.2210 87° East 147 169 600 1,320 Climbing FlightAware ADS-B
01:17PM 37.5021 -122.2180 78° East 150 173 700 1,200 Climbing FlightAware ADS-B
01:17PM 37.5037 -122.2090 77° East 156 180 900 960 Climbing FlightAware ADS-B
01:17PM 37.5053 -122.2030 71° East 159 183 1,000 1,200 Climbing FlightAware ADS-B
01:17PM 37.5060 -122.2000 74° East 160 184 1,100 1,320 Climbing FlightAware ADS-B
01:17PM 37.5077 -122.1950 67° East 163 188 1,200 660 Climbing FlightAware ADS-B
01:17PM 37.5088 -122.1920 65° Northeast 164 189 1,200 660 Level FlightAware ADS-B
01:17PM 37.5109 -122.1870 62° Northeast 169 194 1,300 1,080 Climbing FlightAware ADS-B
01:18PM 37.5131 -122.1830 55° Northeast 172 198 1,400 660 Climbing FlightAware ADS-B
01:18PM 37.5149 -122.1800 53° Northeast 174 200 1,400 600 Level FlightAware ADS-B
01:18PM 37.5183 -122.1750 49° Northeast 176 203 1,500 1,380 Climbing FlightAware ADS-B
01:18PM 37.5269 -122.1640 45° Northeast 168 193 1,900 1,680 Climbing FlightAware ADS-B
01:18PM 37.5327 -122.1580 39° Northeast 161 185 2,200 1,140 Climbing FlightAware ADS-B
01:18PM 37.5385 -122.1510 44° Northeast 157 181 2,300 780 Climbing FlightAware ADS-B
01:18PM 37.5406 -122.1480 49° Northeast 155 178 2,400 720 Climbing FlightAware ADS-B
01:18PM 37.5421 -122.1460 47° Northeast 154 177 2,400  Level FlightAware ADS-B
01:18PM 37.5433 -122.1430 63° Northeast 153 176 2,400 720 Level FlightAware ADS-B
01:19PM 37.5448 -122.1390 65° Northeast 155 178 2,500 720 Climbing FlightAware ADS-B
01:19PM 37.5458 -122.1370 58° Northeast 155 178 2,500  Level FlightAware ADS-B
01:19PM 37.5472 -122.1330 66° East 157 181 2,500 -480 Level FlightAware ADS-B
01:19PM 37.5512 -122.1260 54° Northeast 162 186 2,400 -480 Descending FlightAware ADS-B
01:19PM 37.5533 -122.1240 37° Northeast 164 189 2,400  Level FlightAware ADS-B
01:19PM 37.5567 -122.1210 35° Northeast 165 190 2,400  Level FlightAware ADS-B
01:19PM 37.5586 -122.1190 40° Northeast 165 190 2,400  Level FlightAware ADS-B
01:19PM 37.5616 -122.1170 28° Northeast 166 191 2,400  Level FlightAware ADS-B
01:19PM 37.5644 -122.1160 16° North 168 193 2,400  Level FlightAware ADS-B
01:19PM 37.5713 -122.1130 19° North 167 192 2,400 420 Level FlightAware ADS-B
01:19PM 37.5737 -122.1110 33° Northeast 165 190 2,500 600 Climbing FlightAware ADS-B
01:19PM 37.5785 -122.1080 26° Northeast 163 188 2,500 420 Level FlightAware ADS-B
01:20PM 37.5825 -122.1060 22° Northeast 161 185 2,600 1,200 Climbing FlightAware ADS-B
01:20PM 37.5911 -122.0990 33° Northeast 154 177 2,900 1,500 Climbing FlightAware ADS-B
01:20PM 37.5948 -122.0960 33° Northeast 152 175 3,100 1,500 Climbing FlightAware ADS-B
01:20PM 37.6027 -122.0890 35° Northeast 150 173 3,400 1,080 Climbing FlightAware ADS-B
01:20PM 37.6071 -122.0850 36° Northeast 151 174 3,500 1,080 Climbing FlightAware ADS-B
01:20PM 37.6092 -122.0840 21° North 150 173 3,600 1,680 Climbing FlightAware ADS-B
01:20PM 37.6117 -122.0820 32° Northeast 149 171 3,700 900 Climbing FlightAware ADS-B
01:21PM 37.6171 -122.0790 24° Northeast 150 173 3,800 900 Climbing FlightAware ADS-B
01:21PM 37.6245 -122.0760 18° North 153 176 4,000 1,140 Climbing FlightAware ADS-B
01:21PM 37.6344 -122.0710 22° Northeast 150 173 4,300 1,680 Climbing FlightAware ADS-B
01:21PM 37.6408 -122.0680 20° North 145 167 4,700 1,620 Climbing FlightAware ADS-B
01:21PM 37.6455 -122.0660 19° North 148 170 4,800 960 Climbing FlightAware ADS-B
01:22PM 37.6562 -122.0600 24° Northeast 153 176 5,100 1,080 Climbing FlightAware ADS-B
01:22PM 37.6666 -122.0540 25° Northeast 162 186 5,400 960 Climbing FlightAware ADS-B
01:22PM 37.6729 -122.0500 27° Northeast 166 191 5,500 900 Climbing FlightAware ADS-B
01:22PM 37.6797 -122.0470 19° North 162 186 5,700 1,560 Climbing FlightAware ADS-B
01:22PM 37.6863 -122.0430 26° Northeast 156 180 6,000 1,500 Climbing FlightAware ADS-B
01:23PM 37.6965 -122.0390 17° North 157 181 6,300 1,500 Climbing FlightAware ADS-B
01:23PM 37.7037 -122.0350 24° Northeast 136 157 6,700 2,520 Climbing FlightAware ADS-B
01:23PM 37.7078 -122.0340 11° North 125 144 7,100 1,740 Climbing FlightAware ADS-B
01:23PM 37.7133 -122.0310 23° Northeast 134 154 7,200 420 Climbing FlightAware ADS-B
01:23PM 37.7240 -122.0270 16° North 158 182 7,300 420 Climbing FlightAware ADS-B
01:23PM 37.7328 -122.0230 20° North 168 193 7,400 600 Climbing FlightAware ADS-B
01:24PM 37.7447 -122.0180 18° North 174 200 7,600 1,020 Climbing FlightAware ADS-B
01:24PM 37.7547 -122.0140 18° North 173 199 7,900 1,500 Climbing FlightAware ADS-B
01:24PM 37.7662 -122.0090 19° North 170 196 8,300 1,500 Climbing FlightAware ADS-B
01:24PM 37.7758 -122.0050 18° North 171 197 8,600 1,200 Climbing FlightAware ADS-B
01:25PM 37.7878 -122.0000 18° North 173 199 8,900 1,260 Climbing FlightAware ADS-B
01:25PM 37.7974 -121.9960 18° North 177 204 9,200 1,200 Climbing FlightAware ADS-B
01:25PM 37.8111 -121.9900 19° North 179 206 9,500 1,200 Climbing FlightAware ADS-B
01:25PM 37.8230 -121.9850 18° North 175 201 9,900 1,380 Climbing FlightAware ADS-B
01:26PM 37.8506 -121.9730 19° North 173 199 10,700 1,380 Climbing FlightAware ADS-B
01:26PM 37.8657 -121.9670 17° North 171 197 11,200 1,440 Climbing FlightAware ADS-B
01:27PM 37.8885 -121.9580 17° North 172 198 11,900 1,200 Climbing FlightAware ADS-B
01:27PM 37.9071 -121.9510 17° North 172 198 12,300 1,140 Climbing FlightAware ADS-B
01:28PM 37.9308 -121.9410 18° North 172 198 13,000 1,200 Climbing FlightAware ADS-B
01:28PM 37.9538 -121.9320 17° North 173 199 13,600 1,140 Climbing FlightAware ADS-B
01:29PM 37.9778 -121.9220 18° North 176 203 14,200 1,080 Climbing FlightAware ADS-B
01:29PM 38.0016 -121.9130 17° North 181 208 14,700 900 Climbing FlightAware ADS-B
01:30PM 38.0261 -121.9030 18° North 186 214 15,100 900 Climbing FlightAware ADS-B
01:30PM 38.0512 -121.8940 16° North 190 219 15,600 960 Climbing FlightAware ADS-B
01:31PM 38.0774 -121.8830 18° North 194 223 16,100 960 Climbing FlightAware ADS-B
01:32PM 38.1157 -121.8680 17° North 197 227 16,800 900 Climbing FlightAware ADS-B
01:32PM 38.1430 -121.8580 16° North 199 229 17,300 1,140 Climbing FlightAware
01:33PM 38.1760 -121.8450 17° North 201 231 18,100 1,200 Climbing FlightAware ADS-B
01:33PM 38.2031 -121.8350 16° North 201 231 18,700 1,080 Climbing FlightAware ADS-B
01:34PM 38.2530 -121.8160 17° North 205 236 19,700 1,020 Climbing FlightAware
01:35PM 38.2980 -121.7980 17° North 212 244 20,500 960 Climbing FlightAware
01:36PM 38.3310 -121.7850 17° North 213 245 21,100 960 Climbing FlightAware
01:36PM 38.3620 -121.7730 17° North 217 250 21,600 1,020 Climbing FlightAware
01:37PM 38.4050 -121.7560 17° North 222 255 22,400 1,080 Climbing FlightAware
01:37PM 38.4270 -121.7480 16° North 221 254 22,800 960 Climbing FlightAware
01:38PM 38.4760 -121.7310 15° North 223 257 23,600 960 Climbing FlightAware
01:39PM 38.5180 -121.7210 11° North 227 261 24,300 900 Climbing FlightAware
01:39PM 38.5620 -121.7110 10° North 229 264 24,900 660 Climbing FlightAware
01:40PM 38.5900 -121.7050 10° North 234 269 25,300 780 Climbing FlightAware
01:41PM 38.6500 -121.6930 North 238 274 26,000 900 Climbing FlightAware
01:42PM 38.6990 -121.6840 North 239 275 26,600 720 Climbing FlightAware
01:42PM 38.7440 -121.6750 North 243 280 27,100 660 Climbing FlightAware
01:43PM 38.7950 -121.6650 North 244 281 27,600 600 Climbing FlightAware
01:44PM 38.8400 -121.6560 North 248 285 28,000 300 Climbing FlightAware
01:44PM 38.8816 -121.6470 10° North 265 305 28,000  Level FlightAware ADS-B
01:45PM 38.9190 -121.6400 North 276 318 28,000  Level FlightAware ADS-B
01:45PM 38.9610 -121.6310 North 281 323 28,000  Level FlightAware ADS-B
01:46PM 39.0450 -121.6130 North 290 334 28,000  Level FlightAware
01:47PM 39.1090 -121.6000 North 292 336 28,000  Level FlightAware
01:48PM 39.1620 -121.5890 North 294 338 28,000  Level FlightAware
01:49PM 39.2210 -121.5760 10° North 295 339 28,000  Level FlightAware
01:49PM 39.2780 -121.5630 10° North 296 341 28,000  Level FlightAware
01:50PM 39.3560 -121.5470 North 296 341 28,000  Level FlightAware
01:51PM 39.4330 -121.5310 North 296 341 28,000  Level FlightAware
01:52PM 39.4850 -121.5200 North 297 342 28,000  Level FlightAware
01:52PM 39.5320 -121.5100 North 298 343 28,000  Level FlightAware
01:53PM 39.5990 -121.4960 North 297 342 28,000  Level FlightAware
01:54PM 39.6580 -121.4830 10° North 297 342 28,000  Level FlightAware
01:55PM 39.7330 -121.4670 North 296 341 28,000  Level FlightAware
01:56PM 39.7500 -121.4630 10° North 297 342 28,000  Level FlightAware
01:56PM 39.8130 -121.4360 18° North 300 345 28,000  Level FlightAware
01:57PM 39.9000 -121.3990 18° North 293 337 28,000  Level FlightAware
01:58PM 39.9520 -121.3760 19° North 291 335 28,000  Level FlightAware
01:58PM 40.0050 -121.3520 19° North 290 334 28,000  Level FlightAware
01:59PM 40.0630 -121.3260 19° North 290 334 28,000  Level FlightAware
02:00PM 40.1150 -121.3020 19° North 290 334 28,000  Level FlightAware
02:01PM 40.1930 -121.2670 19° North 290 334 28,000  Level FlightAware
02:01PM 40.2390 -121.2470 18° North 290 334 28,000  Level FlightAware
02:02PM 40.2980 -121.2210 19° North 290 334 28,000  Level FlightAware
02:03PM 40.3500 -121.1980 19° North 290 334 28,000  Level FlightAware
02:03PM 40.4080 -121.1720 19° North 290 334 28,000  Level FlightAware
02:04PM 40.4580 -121.1500 19° North 289 333 28,000  Level FlightAware
02:05PM 40.5380 -121.1140 19° North 289 333 28,000  Level FlightAware
02:06PM 40.6200 -121.0780 18° North 287 330 28,000  Level FlightAware
02:07PM 40.6800 -121.0520 18° North 287 330 28,000  Level FlightAware
02:08PM 40.7380 -121.0260 19° North 287 330 28,000  Level FlightAware
02:08PM 40.7870 -121.0030 20° North 295 339 28,000  Level FlightAware
02:09PM 40.8430 -120.9770 19° North 293 337 28,000  Level FlightAware
02:10PM 40.8950 -120.9540 18° North 293 337 28,000  Level FlightAware
02:11PM 40.9870 -120.9130 19° North 295 339 28,000  Level FlightAware
02:12PM 41.0280 -120.8950 18° North 295 339 28,000  Level FlightAware
02:12PM 41.1050 -120.8600 19° North 296 341 28,000  Level FlightAware
02:13PM 41.1720 -120.8290 19° North 296 341 28,000  Level FlightAware
02:14PM 41.2250 -120.8050 19° North 296 341 28,000  Level FlightAware
02:15PM 41.2930 -120.7740 19° North 296 341 28,000  Level FlightAware
02:16PM 41.3470 -120.7500 18° North 297 342 28,000  Level FlightAware
02:16PM 41.4010 -120.7250 19° North 295 339 28,000  Level FlightAware
02:17PM 41.4600 -120.6980 19° North 293 337 28,000  Level FlightAware
02:18PM 41.5060 -120.6770 19° North 292 336 28,000  Level FlightAware
02:18PM 41.5670 -120.6480 20° North 290 334 28,000  Level FlightAware
02:19PM 41.6150 -120.6260 19° North 289 333 28,000  Level FlightAware
02:20PM 41.6550 -120.6080 19° North 288 331 28,000  Level FlightAware
02:20PM 41.7090 -120.5830 19° North 290 334 28,000  Level FlightAware
02:21PM 41.7540 -120.5620 19° North 289 333 28,000  Level FlightAware
02:22PM 41.8050 -120.5390 19° North 288 331 28,000  Level FlightAware
02:22PM 41.8650 -120.5100 20° North 288 331 28,000  Level FlightAware
02:23PM 41.9170 -120.4860 19° North 287 330 28,000  Level FlightAware
02:24PM 41.9690 -120.4620 19° North 287 330 28,000 -120 Level FlightAware
02:24PM 42.0230 -120.4360 20° North 286 329 27,900 -120 Descending FlightAware
02:25PM 42.0300 -120.4330 18° North 286 329 27,900 60 Level FlightAware
02:26PM 42.1330 -120.3840 19° North 286 329 28,000  Climbing FlightAware
02:27PM 42.1780 -120.3630 19° North 287 330 28,000  Level FlightAware
02:27PM 42.2270 -120.3390 20° North 286 329 28,000  Level FlightAware
02:28PM 42.2640 -120.3220 19° North 286 329 28,000  Level FlightAware
02:28PM 42.3200 -120.2960 19° North 285 328 28,000  Level FlightAware
02:29PM 42.3550 -120.2800 19° North 284 327 28,000  Level FlightAware
02:30PM 42.4300 -120.2450 19° North 285 328 28,000  Level FlightAware
02:30PM 42.4680 -120.2260 20° North 285 328 28,000  Level FlightAware
02:31PM 42.5230 -120.2000 19° North 284 327 28,000  Level FlightAware
02:32PM 42.5800 -120.1730 19° North 285 328 28,000  Level FlightAware
02:33PM 42.6310 -120.1480 20° North 285 328 28,000  Level FlightAware
02:33PM 42.6840 -120.1230 19° North 286 329 28,000  Level FlightAware
02:34PM 42.7600 -120.0880 19° North 286 329 28,000  Level FlightAware
02:35PM 42.8120 -120.0630 19° North 285 328 28,000  Level FlightAware
02:36PM 42.8700 -120.0350 19° North 284 327 28,000  Level FlightAware
02:37PM 42.9080 -120.0180 18° North 284 327 28,000  Level FlightAware
02:37PM 42.9590 -119.9930 20° North 284 327 28,000  Level FlightAware
02:38PM 42.9980 -119.9750 19° North 284 327 28,000  Level FlightAware
02:39PM 43.0490 -119.9510 19° North 284 327 28,000  Level FlightAware
02:39PM 43.0870 -119.9330 19° North 284 327 28,000  Level FlightAware
02:41PM 43.2156 -119.8664 19° North 283 326 28,000 -60 Level Seattle Center
02:42PM 43.2892 -119.8306 20° North 282 325 27,900 -60 Descending Seattle Center
02:43PM 43.3617 -119.7950 20° North 278 320 27,900  Level Seattle Center
02:44PM 43.4353 -119.7578 20° North 282 325 27,900  Level Seattle Center
02:45PM 43.5236 -119.7156 19° North 279 321 27,900  Level Seattle Center
02:46PM 43.5972 -119.6783 20° North 283 326 27,900  Level Seattle Center
02:47PM 43.6706 -119.6433 19° North 279 321 28,000  Climbing Seattle Center
02:48PM 43.7433 -119.6064 20° North 279 321 27,900  Descending Seattle Center
02:49PM 43.8158 -119.5694 20° North 279 321 28,000  Climbing Seattle Center
02:50PM 43.8886 -119.5331 20° North 279 321 27,900 -60 Descending Seattle Center
02:51PM 43.9603 -119.4972 20° North 276 318 27,900  Level Seattle Center
02:52PM 44.0328 -119.4622 19° North 276 318 27,900  Level Seattle Center
02:53PM 44.1047 -119.4253 20° North 276 318 27,900  Level Seattle Center
02:54PM 44.1914 -119.3817 20° North 277 319 27,900  Level Seattle Center
02:55PM 44.2614 -119.3464 20° North 271 312 27,900  Level Seattle Center
02:56PM 44.3333 -119.3103 20° North 274 315 27,900  Level Seattle Center
02:57PM 44.4042 -119.2736 20° North 272 313 27,900  Level Seattle Center
02:58PM 44.4750 -119.2372 20° North 272 313 27,900  Level Seattle Center
02:59PM 44.5436 -119.2022 20° North 268 308 27,900  Level Seattle Center
03:00PM 44.6133 -119.1678 19° North 266 306 27,900  Level Seattle Center
03:01PM 44.6814 -119.1319 21° North 264 304 28,000  Climbing Seattle Center
03:02PM 44.7644 -119.0908 19° North 264 304 27,900 -60 Descending Seattle Center
03:03PM 44.8314 -119.0569 20° North 258 297 27,900  Level Seattle Center
03:04PM 44.8978 -119.0228 20° North 256 295 27,900  Level Seattle Center
03:05PM 44.9639 -118.9883 20° North 255 293 27,900  Level Seattle Center
03:06PM 45.0308 -118.9547 20° North 255 293 27,900  Level Seattle Center
03:07PM 45.0958 -118.9217 20° North 252 290 28,000  Climbing Seattle Center
03:13PM 45.4770 -118.7220 20° North 254 292 28,000  Level FlightAware
03:14PM 45.5230 -118.6980 20° North 255 293 28,000  Level FlightAware
03:14PM 45.5720 -118.6710 21° North 256 295 28,000  Level FlightAware
03:15PM 45.6180 -118.6460 21° North 259 298 28,000  Level FlightAware
03:16PM 45.6610 -118.6220 21° North 260 299 28,000  Level FlightAware
03:16PM 45.7110 -118.5950 21° North 261 300 28,000 -120 Level FlightAware
03:17PM 45.7580 -118.5690 21° North 261 300 27,900 -180 Descending FlightAware
03:18PM 45.7970 -118.5480 21° North 266 306 27,800 -540 Descending FlightAware
03:18PM 45.8550 -118.5160 21° North 276 318 27,200 -720 Descending FlightAware
03:19PM 45.9080 -118.4870 21° North 281 323 26,800 -600 Descending FlightAware
03:20PM 45.9570 -118.4600 21° North 282 325 26,400 -480 Descending FlightAware
03:21PM 45.9790 -118.4490 19° North 282 325 26,200 -600 Descending FlightAware
03:21PM 46.0570 -118.4070 20° North 276 318 25,600 -780 Descending FlightAware
03:22PM 46.1120 -118.3770 21° North 272 313 25,100 -660 Descending FlightAware
03:23PM 46.1620 -118.3510 20° North 272 313 24,700 -660 Descending FlightAware
03:24PM 46.2260 -118.3160 21° North 269 310 24,100 -660 Descending FlightAware
03:24PM 46.2740 -118.2890 21° North 270 311 23,700 -360 Descending FlightAware
03:25PM 46.3320 -118.2580 20° North 270 311 23,500 -660 Descending FlightAware
03:26PM 46.3860 -118.2280 21° North 269 310 22,700 -660 Descending FlightAware
03:27PM 46.4430 -118.1970 21° North 267 307 22,500 -660 Descending FlightAware
03:28PM 46.5000 -118.1650 21° North 264 304 21,700 -840 Descending FlightAware
03:28PM 46.5480 -118.1380 21° North 264 304 21,300 -780 Descending FlightAware
03:29PM 46.5940 -118.1130 20° North 268 308 20,700 -600 Descending FlightAware
03:30PM 46.6380 -118.0880 21° North 270 311 20,500 -180 Descending FlightAware
03:30PM 46.6770 -118.0670 20° North 270 311 20,500  Level FlightAware
03:31PM 46.7240 -118.0400 21° North 270 311 20,500  Level FlightAware
03:32PM 46.7590 -118.0210 20° North 270 311 20,500  Level FlightAware
03:32PM 46.8060 -117.9940 21° North 270 311 20,500  Level FlightAware
03:33PM 46.8450 -117.9720 21° North 270 311 20,500 -3,360 Level FlightAware
03:34PM 46.9200 -117.9322 21° North 259 298 15,900 -3,300 Descending Seattle Center
03:35PM 46.9894 -117.8953 20° North 263 303 14,800 -1,140 Descending Seattle Center
03:36PM 47.0561 -117.8567 22° Northeast 260 299 13,700 -1,080 Descending Seattle Center
03:37PM 47.1197 -117.8200 21° North 249 287 12,700 -1,080 Descending Seattle Center
03:38PM 47.1803 -117.7764 26° Northeast 245 282 11,600 -1,200 Descending Seattle Center
03:39PM 47.2528 -117.7247 26° Northeast 242 278 10,300 -1,140 Descending Seattle Center
03:40PM 47.3139 -117.6792 27° Northeast 244 281 9,300 -1,080 Descending Seattle Center
03:41PM 47.3744 -117.6367 25° Northeast 244 281 8,200 -1,140 Descending Seattle Center
03:42PM 47.4319 -117.5958 26° Northeast 238 274 7,100 -600 Descending Seattle Center
03:43PM 47.4856 -117.5561 27° Northeast 227 261 7,000 -60 Descending Seattle Center
03:44PM 47.5333 -117.5194 27° Northeast 209 241 7,000 -300 Level Seattle Center
03:45PM 47.5828 -117.4839 26° Northeast 201 231 6,500 -900 Descending Seattle Center
03:46PM 47.6231 -117.4311 41° Northeast 194 223 5,200 -1,080 Descending Seattle Center
03:47PM 47.6586 -117.4292 North 169 194 4,300 -1,080 Descending Seattle Center
03:48PM 47.6592 -117.4775 271° West 158 182 3,100 -840 Descending Seattle Center
03:49PM 47.6375 -117.5086 224° Southwest 123 142 2,600 -420 Descending Seattle Center
03:50PM 47.6231 -117.5311 226° Southwest 78 90 2,300 -300 Descending Seattle Center
03:52PM 47.6167 -117.5333 North  Level FlightAware Approximate